Time;durP1;ratioP1;P1;durP2;ratioP2;P2;SDS_P1;SDS_P2;PMS_P1;PMS_P2;Temp;Humidity;BMP_temperature;BMP_pressure;BME280_temperature;BME280_humidity;BME280_pressure;Samples;Min_cycle;Max_cycle;Signal;HPM_P1;HPM_P2
2022/10/10 00:01:54;;;;;;;4.45;1.40;;;;;;;9.83;84.77;101017.00;1650599;86;21194;-65
2022/10/10 00:04:25;;;;;;;3.80;1.30;;;;;;;9.81;84.82;101009.48;1663240;85;21156;-67
2022/10/10 00:06:54;;;;;;;2.98;1.10;;;;;;;9.79;84.88;101006.59;1660192;85;21047;-64
2022/10/10 00:09:24;;;;;;;7.90;1.67;;;;;;;9.77;84.94;101008.64;1661273;85;21051;-64
2022/10/10 00:11:54;;;;;;;3.30;1.30;;;;;;;9.76;84.93;101014.64;1666362;85;21049;-65
2022/10/10 00:14:25;;;;;;;1.98;1.00;;;;;;;9.74;84.85;101016.66;1676421;85;21454;-64
2022/10/10 00:16:57;;;;;;;3.40;1.17;;;;;;;9.72;84.95;101006.41;1665356;85;21059;-64
2022/10/10 00:19:28;;;;;;;2.45;0.93;;;;;;;9.71;84.94;101019.76;1655914;85;21537;-65
2022/10/10 00:21:57;;;;;;;4.75;1.27;;;;;;;9.72;84.96;101011.03;1656064;85;21007;-65
2022/10/10 00:24:27;;;;;;;5.20;1.15;;;;;;;9.71;84.86;101013.43;1670418;85;21562;-65
2022/10/10 00:26:58;;;;;;;5.72;1.42;;;;;;;9.69;84.90;101015.49;1657006;85;21056;-65
2022/10/10 00:29:30;;;;;;;2.62;1.17;;;;;;;9.69;84.86;101018.23;1644166;86;21499;-64
2022/10/10 00:31:59;;;;;;;3.70;1.30;;;;;;;9.67;84.89;101015.67;1654039;85;21023;-65
2022/10/10 00:34:31;;;;;;;2.42;1.30;;;;;;;9.67;84.77;101027.98;1656041;85;21043;-65
2022/10/10 00:37:00;;;;;;;4.70;1.60;;;;;;;9.66;84.80;101026.79;1664267;85;21106;-65
2022/10/10 00:39:31;;;;;;;1.62;1.10;;;;;;;9.67;84.72;101029.86;1655647;86;21083;-66
2022/10/10 00:42:01;;;;;;;3.92;1.30;;;;;;;9.66;84.72;101027.64;1664404;85;21461;-65
2022/10/10 00:44:30;;;;;;;2.77;1.17;;;;;;;9.66;84.65;101023.54;1664532;85;21059;-65
2022/10/10 00:47:00;;;;;;;3.75;1.40;;;;;;;9.63;84.50;101022.52;1664377;85;21101;-65
2022/10/10 00:49:30;;;;;;;4.92;1.30;;;;;;;9.58;84.50;101024.94;1661089;85;21053;-66
2022/10/10 00:52:00;;;;;;;2.12;1.10;;;;;;;9.55;84.54;101028.02;1656096;85;21007;-65
2022/10/10 00:54:30;;;;;;;3.37;1.30;;;;;;;9.52;84.50;101031.97;1657059;85;21524;-65
2022/10/10 00:57:07;;;;;;;2.70;1.00;;;;;;;9.51;84.55;101037.61;1639600;85;21108;-65
2022/10/10 00:59:39;;;;;;;2.15;1.10;;;;;;;9.48;84.61;101033.86;1667570;85;21066;-66
2022/10/10 01:02:09;;;;;;;5.58;1.12;;;;;;;9.44;84.59;101035.23;1652604;86;21039;-66
2022/10/10 01:04:41;;;;;;;4.95;1.32;;;;;;;9.39;84.64;101033.02;1656158;85;21473;-65
2022/10/10 01:07:21;;;;;;;2.35;1.25;;;;;;;9.37;84.77;101033.72;1660006;85;21532;-65
2022/10/10 01:09:52;;;;;;;3.80;1.05;;;;;;;9.38;84.77;101037.30;1646513;85;21055;-66
2022/10/10 01:12:39;;;;;;;2.98;1.20;;;;;;;9.38;84.70;101029.09;1656140;85;21039;-66
2022/10/10 01:15:43;;;;;;;3.83;1.20;;;;;;;9.36;84.72;101029.27;1661365;85;21488;-67
2022/10/10 01:18:55;;;;;;;3.80;1.20;;;;;;;9.35;84.70;101029.45;1656914;85;21088;-64
2022/10/10 01:21:36;;;;;;;3.98;1.00;;;;;;;9.32;84.68;101040.73;1651962;85;21012;-66
2022/10/10 01:24:35;;;;;;;4.05;1.15;;;;;;;9.27;84.67;101034.42;1646913;85;21102;-66
2022/10/10 01:27:54;;;;;;;2.80;1.10;;;;;;;9.25;84.72;101036.48;1658777;85;21038;-66
2022/10/10 01:30:25;;;;;;;4.53;1.15;;;;;;;9.23;84.76;101026.73;1654970;85;21054;-67
2022/10/10 01:32:59;;;;;;;3.08;1.20;;;;;;;9.21;84.83;101040.07;1657320;85;21110;-64
2022/10/10 01:35:42;;;;;;;1.72;0.90;;;;;;;9.20;84.83;101040.24;1654998;85;21031;-65
2022/10/10 01:38:39;;;;;;;5.05;1.00;;;;;;;9.19;84.73;101044.00;1663978;85;21031;-66
2022/10/10 01:41:23;;;;;;;2.30;1.20;;;;;;;9.13;84.71;101049.65;1656233;85;21244;-65
2022/10/10 01:43:54;;;;;;;3.67;1.40;;;;;;;9.07;84.84;101047.58;1657322;85;21110;-67
2022/10/10 01:46:23;;;;;;;2.15;1.20;;;;;;;9.05;84.96;101046.04;1649432;85;21521;-64
2022/10/10 01:48:55;;;;;;;3.98;1.25;;;;;;;9.02;85.09;101049.11;1666971;85;21090;-65
2022/10/10 01:51:47;;;;;;;3.50;1.02;;;;;;;9.03;85.04;101057.14;1656173;85;21051;-66
2022/10/10 01:54:41;;;;;;;2.72;1.35;;;;;;;9.01;85.05;101055.09;1657896;85;21533;-65
2022/10/10 01:58:01;;;;;;;3.02;1.20;;;;;;;8.98;85.08;101062.78;1676234;85;21117;-67
2022/10/10 02:00:34;;;;;;;3.15;1.40;;;;;;;8.95;85.22;101061.25;1658743;85;21103;-66
2022/10/10 02:03:20;;;;;;;5.22;1.20;;;;;;;8.88;85.26;101057.49;1676965;85;21062;-65
2022/10/10 02:06:03;;;;;;;2.15;1.30;;;;;;;8.84;85.27;101068.42;1660803;85;21070;-66
2022/10/10 02:08:35;;;;;;;3.20;1.17;;;;;;;8.80;85.32;101068.42;1648937;85;21071;-65
2022/10/10 02:11:08;;;;;;;3.95;1.30;;;;;;;8.76;85.44;101069.78;1656041;85;21054;-65
2022/10/10 02:13:48;;;;;;;4.37;1.30;;;;;;;8.72;85.60;101074.73;1664252;85;21049;-66
2022/10/10 02:16:26;;;;;;;4.80;1.50;;;;;;;8.71;85.71;101068.07;1672703;85;21022;-65
2022/10/10 02:18:55;;;;;;;4.92;1.15;;;;;;;8.69;85.76;101070.97;1665195;85;21089;-66
2022/10/10 02:21:25;;;;;;;3.20;1.10;;;;;;;8.70;85.86;101078.66;1655941;85;21071;-66
2022/10/10 02:23:55;;;;;;;4.85;1.22;;;;;;;8.71;85.91;101080.36;1664492;85;21035;-65
2022/10/10 02:26:25;;;;;;;2.67;1.20;;;;;;;8.71;85.95;101083.95;1664071;85;21509;-69
2022/10/10 02:29:02;;;;;;;5.42;1.30;;;;;;;8.72;85.93;101091.64;1650977;85;21081;-64
2022/10/10 02:31:43;;;;;;;5.17;1.30;;;;;;;8.72;85.79;101091.13;1667982;85;21073;-65
2022/10/10 02:34:16;;;;;;;2.92;1.10;;;;;;;8.73;85.69;101091.98;1646078;85;21043;-65
2022/10/10 02:36:50;;;;;;;3.72;1.05;;;;;;;8.75;85.65;101094.03;1664463;85;21035;-65
2022/10/10 02:39:22;;;;;;;3.52;1.10;;;;;;;8.73;85.51;101093.34;1646498;85;21031;-66
2022/10/10 02:41:52;;;;;;;4.35;1.20;;;;;;;8.72;85.46;101096.59;1665395;85;21272;-65
2022/10/10 02:44:22;;;;;;;6.15;1.17;;;;;;;8.72;85.36;101099.32;1668480;85;21053;-65
2022/10/10 02:46:52;;;;;;;2.12;1.20;;;;;;;8.72;85.19;101097.09;1668156;85;21091;-65
2022/10/10 02:49:32;;;;;;;2.37;1.10;;;;;;;8.70;85.12;101092.31;1656573;85;21480;-65
2022/10/10 02:52:02;;;;;;;3.55;1.37;;;;;;;8.68;85.13;101093.85;1676508;85;21070;-66
2022/10/10 02:54:33;;;;;;;1.75;0.93;;;;;;;8.67;85.02;101090.77;1676550;85;21089;-66
2022/10/10 02:57:03;;;;;;;5.65;1.20;;;;;;;8.67;85.04;101095.39;1676394;85;21113;-66
2022/10/10 02:59:32;;;;;;;4.35;1.30;;;;;;;8.66;84.97;101098.63;1645676;85;21007;-65
2022/10/10 03:02:02;;;;;;;5.33;1.32;;;;;;;8.67;84.87;101101.70;1663211;85;21037;-65
2022/10/10 03:04:32;;;;;;;3.15;1.30;;;;;;;8.66;84.77;101101.87;1676504;85;21146;-65
2022/10/10 03:07:03;;;;;;;5.10;1.65;;;;;;;8.64;84.75;101107.50;1659391;85;21043;-65
2022/10/10 03:09:33;;;;;;;4.58;1.12;;;;;;;8.63;84.68;101109.03;1649583;86;21490;-65
2022/10/10 03:12:03;;;;;;;3.60;1.15;;;;;;;8.60;84.67;101103.91;1649620;86;21072;-65
2022/10/10 03:14:33;;;;;;;3.87;1.37;;;;;;;8.58;84.72;101113.12;1653799;85;21539;-65
2022/10/10 03:17:03;;;;;;;4.03;1.27;;;;;;;8.57;84.74;101111.92;1653143;86;21076;-65
2022/10/10 03:19:33;;;;;;;2.85;1.20;;;;;;;8.54;84.66;101111.75;1657870;86;21221;-65
2022/10/10 03:22:03;;;;;;;3.40;1.20;;;;;;;8.49;84.72;101112.77;1658907;86;21535;-65
2022/10/10 03:24:33;;;;;;;1.75;1.12;;;;;;;8.47;84.76;101114.81;1660949;84;21185;-67
2022/10/10 03:27:02;;;;;;;3.33;1.10;;;;;;;8.42;84.73;101117.16;1656623;86;21055;-65
2022/10/10 03:29:32;;;;;;;6.40;1.50;;;;;;;8.41;84.89;101123.63;1649646;86;21325;-66
2022/10/10 03:32:02;;;;;;;4.12;1.50;;;;;;;8.40;84.93;101123.80;1658422;86;21032;-66
2022/10/10 03:34:31;;;;;;;2.02;1.00;;;;;;;8.36;85.07;101126.01;1658826;85;21004;-65
2022/10/10 03:37:01;;;;;;;3.87;1.20;;;;;;;8.35;85.12;101129.76;1661205;86;21043;-66
2022/10/10 03:39:30;;;;;;;4.67;1.40;;;;;;;8.33;85.17;101129.06;1656588;86;21122;-67
2022/10/10 03:42:00;;;;;;;2.42;1.20;;;;;;;8.31;85.17;101130.22;1661081;86;21061;-65
2022/10/10 03:44:30;;;;;;;2.15;1.10;;;;;;;8.31;85.19;101131.08;1661333;85;21507;-64
2022/10/10 03:46:59;;;;;;;4.37;1.27;;;;;;;8.29;85.26;101126.29;1661308;85;21042;-67
2022/10/10 03:49:28;;;;;;;4.42;1.40;;;;;;;8.29;85.30;101123.56;1663514;86;21061;-65
2022/10/10 03:51:59;;;;;;;3.17;1.60;;;;;;;8.27;85.21;101123.73;1667476;85;21033;-68
2022/10/10 03:54:29;;;;;;;2.52;1.25;;;;;;;8.28;85.28;101128.67;1653022;86;21044;-66
2022/10/10 03:56:58;;;;;;;3.22;1.15;;;;;;;8.28;85.29;101129.53;1649776;86;21080;-66
2022/10/10 03:59:27;;;;;;;5.28;1.20;;;;;;;8.27;85.26;101131.92;1658221;86;21090;-66
2022/10/10 04:01:57;;;;;;;2.87;1.32;;;;;;;8.21;85.20;101132.58;1663807;86;21473;-65
2022/10/10 04:04:27;;;;;;;3.12;1.17;;;;;;;8.19;85.30;101131.89;1662110;86;21518;-65
2022/10/10 04:06:59;;;;;;;4.20;1.42;;;;;;;8.18;85.35;101145.19;1663610;86;21007;-67
2022/10/10 04:09:28;;;;;;;3.55;1.40;;;;;;;8.16;85.38;101149.95;1661238;86;21428;-66
2022/10/10 04:11:59;;;;;;;6.20;1.60;;;;;;;8.15;85.41;101148.76;1651672;86;21485;-66
2022/10/10 04:14:29;;;;;;;4.58;1.37;;;;;;;8.17;85.48;101148.09;1652086;86;21041;-66
2022/10/10 04:16:58;;;;;;;1.87;1.15;;;;;;;8.17;85.52;101153.55;1672724;86;21034;-66
2022/10/10 04:19:29;;;;;;;5.78;1.60;;;;;;;8.15;85.56;101150.12;1664673;85;21036;-67
2022/10/10 04:21:59;;;;;;;5.58;1.60;;;;;;;8.15;85.65;101150.98;1651573;86;21079;-65
2022/10/10 04:24:29;;;;;;;4.15;1.30;;;;;;;8.13;85.58;101151.66;1659931;85;21085;-67
2022/10/10 04:26:59;;;;;;;6.58;1.47;;;;;;;8.15;85.66;101162.41;1670776;86;21033;-66
2022/10/10 04:29:29;;;;;;;4.80;1.27;;;;;;;8.14;85.71;101163.42;1660928;86;21060;-68
2022/10/10 04:32:00;;;;;;;4.58;1.40;;;;;;;8.13;85.78;101155.74;1651444;86;21111;-66
2022/10/10 04:34:31;;;;;;;4.83;1.12;;;;;;;8.14;85.71;101157.97;1668102;85;21507;-67
2022/10/10 04:37:01;;;;;;;3.67;1.30;;;;;;;8.13;85.74;101163.08;1652722;86;21051;-66
2022/10/10 04:39:30;;;;;;;11.40;2.20;;;;;;;8.15;85.73;101158.31;1657824;86;21081;-65
2022/10/10 04:42:02;;;;;;;3.55;1.32;;;;;;;8.17;85.74;101161.73;1674329;86;21109;-65
2022/10/10 04:44:32;;;;;;;4.15;1.30;;;;;;;8.19;85.74;101166.01;1672625;84;21168;-65
2022/10/10 04:47:01;;;;;;;8.65;1.52;;;;;;;8.18;85.71;101166.17;1663166;86;21028;-65
2022/10/10 04:49:32;;;;;;;4.95;1.72;;;;;;;8.18;85.68;101170.27;1656554;85;21515;-65
2022/10/10 04:52:02;;;;;;;2.27;1.50;;;;;;;8.16;85.64;101172.30;1663962;84;21073;-66
2022/10/10 04:54:31;;;;;;;2.95;1.10;;;;;;;8.15;85.62;101169.23;1660019;86;21051;-66
2022/10/10 04:57:01;;;;;;;2.50;1.50;;;;;;;8.13;85.55;101172.13;1651526;85;21071;-64
2022/10/10 04:59:30;;;;;;;4.85;1.30;;;;;;;8.09;85.64;101169.37;1664500;86;21041;-64
2022/10/10 05:02:00;;;;;;;7.35;1.60;;;;;;;8.10;85.72;101181.14;1656597;85;21545;-67
2022/10/10 05:04:32;;;;;;;5.37;1.42;;;;;;;8.12;85.77;101173.66;1671188;84;21045;-65
2022/10/10 05:07:02;;;;;;;5.70;1.70;;;;;;;8.12;85.75;101175.02;1657451;85;21107;-66
2022/10/10 05:09:32;;;;;;;5.12;1.92;;;;;;;8.14;85.81;101190.72;1652967;85;21116;-66
2022/10/10 05:12:01;;;;;;;3.92;1.55;;;;;;;8.15;85.74;101194.66;1658638;86;21019;-66
2022/10/10 05:14:30;;;;;;;9.60;2.15;;;;;;;8.15;85.79;101195.16;1651761;86;21032;-67
2022/10/10 05:17:00;;;;;;;3.10;1.70;;;;;;;8.14;85.85;101192.09;1656422;86;21069;-66
2022/10/10 05:19:30;;;;;;;7.15;2.42;;;;;;;8.12;85.92;101194.13;1656040;86;21071;-67
2022/10/10 05:22:00;;;;;;;3.45;1.60;;;;;;;8.13;86.01;101198.56;1651622;86;21067;-67
2022/10/10 05:24:30;;;;;;;3.10;1.57;;;;;;;8.15;86.05;101198.75;1660513;86;21031;-67
2022/10/10 05:26:59;;;;;;;6.37;1.80;;;;;;;8.19;86.02;101204.73;1640461;86;21051;-65
2022/10/10 05:29:29;;;;;;;2.42;1.50;;;;;;;8.24;86.13;101197.77;1668639;86;21053;-65
2022/10/10 05:31:58;;;;;;;9.58;2.15;;;;;;;8.28;86.06;101194.20;1661741;86;21047;-66
2022/10/10 05:34:29;;;;;;;5.60;1.80;;;;;;;8.32;86.02;101201.05;1660853;85;21079;-65
2022/10/10 05:37:00;;;;;;;5.28;1.50;;;;;;;8.35;85.99;101198.02;1662800;86;21045;-67
2022/10/10 05:39:29;;;;;;;5.50;1.80;;;;;;;8.39;85.93;101199.41;1674236;84;21618;-68
2022/10/10 05:41:59;;;;;;;4.08;1.70;;;;;;;8.44;85.84;101198.91;1672210;85;21038;-66
2022/10/10 05:44:28;;;;;;;8.13;1.72;;;;;;;8.48;85.65;101199.82;1651432;86;21008;-65
2022/10/10 05:46:57;;;;;;;4.10;1.57;;;;;;;8.50;85.50;101204.61;1651323;86;21091;-67
2022/10/10 05:49:28;;;;;;;6.05;1.55;;;;;;;8.53;85.34;101203.42;1641869;86;21063;-65
2022/10/10 05:51:58;;;;;;;6.03;1.85;;;;;;;8.53;85.25;101212.98;1651638;86;21617;-66
2022/10/10 05:54:28;;;;;;;7.92;1.47;;;;;;;8.56;85.23;101215.38;1660544;85;21478;-66
2022/10/10 05:56:57;;;;;;;4.05;1.57;;;;;;;8.59;85.18;101215.05;1651486;86;21032;-65
2022/10/10 05:59:28;;;;;;;4.35;1.62;;;;;;;8.66;85.17;101211.15;1661943;86;21083;-64
2022/10/10 06:01:59;;;;;;;5.08;1.90;;;;;;;8.70;84.81;101217.99;1657485;85;21099;-65
2022/10/10 06:04:28;;;;;;;2.58;1.50;;;;;;;8.69;84.62;101218.50;1653347;85;21040;-65
2022/10/10 06:06:58;;;;;;;2.87;1.32;;;;;;;8.71;84.58;101221.92;1658533;86;21087;-65
2022/10/10 06:09:27;;;;;;;3.33;1.50;;;;;;;8.73;84.50;101232.18;1651411;86;21075;-67
2022/10/10 06:11:57;;;;;;;3.17;1.50;;;;;;;8.75;84.41;101223.81;1651852;86;21103;-65
2022/10/10 06:14:26;;;;;;;4.87;1.65;;;;;;;8.79;84.31;101226.56;1651834;86;21053;-66
2022/10/10 06:16:56;;;;;;;5.97;1.70;;;;;;;8.81;84.30;101229.98;1641799;86;21071;-65
2022/10/10 06:19:26;;;;;;;7.97;2.10;;;;;;;8.84;84.28;101233.75;1659356;86;21035;-66
2022/10/10 06:21:56;;;;;;;3.52;1.67;;;;;;;8.87;84.03;101236.16;1640672;86;21063;-66
2022/10/10 06:24:25;;;;;;;4.50;1.60;;;;;;;8.87;84.00;101238.38;1659117;86;21065;-65
2022/10/10 06:26:54;;;;;;;8.63;1.80;;;;;;;8.89;83.93;101238.20;1661551;85;21039;-65
2022/10/10 06:29:24;;;;;;;6.62;1.60;;;;;;;8.91;83.90;101237.53;1651300;86;21067;-66
2022/10/10 06:31:54;;;;;;;6.83;1.90;;;;;;;8.96;83.93;101246.08;1660673;86;21167;-66
2022/10/10 06:34:25;;;;;;;4.10;1.45;;;;;;;9.00;83.75;101236.53;1651605;86;21521;-68
2022/10/10 06:36:54;;;;;;;3.47;1.35;;;;;;;9.03;83.58;101236.20;1660266;86;21474;-67
2022/10/10 06:39:24;;;;;;;7.33;2.37;;;;;;;9.07;83.48;101238.08;1656821;86;21036;-65
2022/10/10 06:41:53;;;;;;;12.45;2.50;;;;;;;9.09;83.30;101241.50;1651171;86;21070;-65
2022/10/10 06:44:26;;;;;;;20.50;2.90;;;;;;;9.12;83.24;101246.16;1651629;86;21095;-65
2022/10/10 06:46:56;;;;;;;41.75;3.83;;;;;;;9.15;83.20;101247.19;1660685;85;21054;-64
2022/10/10 06:49:26;;;;;;;32.45;3.70;;;;;;;9.18;83.17;101240.02;1669826;86;21074;-64
2022/10/10 06:51:58;;;;;;;12.05;2.15;;;;;;;9.21;83.14;101246.52;1651338;86;21554;-66
2022/10/10 06:54:29;;;;;;;7.83;1.65;;;;;;;9.28;83.03;101243.11;1644680;85;21037;-66
2022/10/10 06:56:58;;;;;;;4.58;1.42;;;;;;;9.31;82.75;101250.97;1656056;86;21123;-65
2022/10/10 06:59:28;;;;;;;5.97;2.00;;;;;;;9.33;82.52;101242.09;1660721;84;21114;-66
2022/10/10 07:01:59;;;;;;;6.92;1.70;;;;;;;9.34;82.49;101250.64;1659093;86;21801;-64
2022/10/10 07:04:31;;;;;;;7.35;1.90;;;;;;;9.35;82.47;101242.77;1654272;86;21063;-64
2022/10/10 07:07:02;;;;;;;5.65;1.90;;;;;;;9.38;82.41;101249.27;1673704;86;21056;-66
2022/10/10 07:09:33;;;;;;;7.97;1.85;;;;;;;9.42;82.27;101252.02;1680534;84;21216;-65
2022/10/10 07:12:06;;;;;;;5.55;1.75;;;;;;;9.45;82.15;101251.67;1680861;85;21121;-65
2022/10/10 07:14:36;;;;;;;5.87;1.45;;;;;;;9.48;82.08;101245.86;1686584;85;21265;-65
2022/10/10 07:17:07;;;;;;;3.90;1.70;;;;;;;9.51;81.98;101249.63;1675793;83;21068;-64
2022/10/10 07:19:37;;;;;;;4.28;1.30;;;;;;;9.54;82.02;101245.18;1675847;85;21112;-66
2022/10/10 07:22:07;;;;;;;3.33;1.30;;;;;;;9.59;81.93;101248.77;1669446;85;21027;-66
2022/10/10 07:24:36;;;;;;;3.72;1.42;;;;;;;9.63;81.77;101244.16;1662777;85;21067;-66
2022/10/10 07:27:06;;;;;;;4.20;1.50;;;;;;;9.69;81.51;101245.36;1661459;85;21474;-66
2022/10/10 07:29:38;;;;;;;5.83;1.67;;;;;;;9.72;81.40;101251.34;1671614;85;21085;-66
2022/10/10 07:32:09;;;;;;;3.98;1.47;;;;;;;9.77;81.31;101242.64;1686506;83;21472;-66
2022/10/10 07:34:39;;;;;;;4.45;1.40;;;;;;;9.81;81.29;101244.02;1665812;85;21063;-66
2022/10/10 07:37:09;;;;;;;3.62;1.55;;;;;;;9.87;81.22;101243.84;1686840;85;21072;-64
2022/10/10 07:39:40;;;;;;;4.50;1.20;;;;;;;9.89;80.94;101242.63;1666775;85;21039;-64
2022/10/10 07:42:09;;;;;;;4.60;1.30;;;;;;;9.99;80.92;101239.72;1671656;85;21129;-65
2022/10/10 07:44:38;;;;;;;4.05;1.50;;;;;;;10.28;81.37;101238.66;1663126;85;21550;-65
2022/10/10 07:47:07;;;;;;;4.78;1.50;;;;;;;10.72;80.63;101238.19;1663135;85;21050;-64
2022/10/10 07:49:37;;;;;;;3.85;1.20;;;;;;;11.22;79.54;101245.14;1681041;83;21075;-66
2022/10/10 07:52:06;;;;;;;6.03;1.22;;;;;;;11.74;78.00;101231.05;1661465;85;21082;-65
2022/10/10 07:54:36;;;;;;;2.47;1.10;;;;;;;12.26;75.85;101231.59;1661117;85;21027;-64
2022/10/10 07:57:06;;;;;;;3.75;1.40;;;;;;;12.74;73.38;101240.33;1661775;85;21074;-65
2022/10/10 07:59:35;;;;;;;4.28;1.27;;;;;;;13.15;71.35;101241.18;1661354;85;21114;-65
2022/10/10 08:02:05;;;;;;;2.58;1.20;;;;;;;13.46;69.00;101228.53;1670948;85;21042;-65
2022/10/10 08:04:34;;;;;;;3.47;1.30;;;;;;;13.69;67.00;101241.60;1650230;85;21099;-66
2022/10/10 08:07:05;;;;;;;3.47;1.20;;;;;;;14.00;66.36;101241.23;1661443;85;21059;-65
2022/10/10 08:09:36;;;;;;;3.62;1.55;;;;;;;14.28;65.70;101237.95;1683609;85;21087;-66
2022/10/10 08:12:07;;;;;;;4.67;1.25;;;;;;;14.64;64.66;101232.81;1674349;85;21043;-66
2022/10/10 08:14:37;;;;;;;3.00;1.20;;;;;;;14.95;63.28;101236.98;1656659;85;21463;-65
2022/10/10 08:17:07;;;;;;;4.40;1.45;;;;;;;15.09;61.60;101236.86;1674568;85;21124;-65
2022/10/10 08:19:38;;;;;;;5.33;1.10;;;;;;;15.14;60.98;101237.63;1683255;85;21121;-66
2022/10/10 08:22:07;;;;;;;5.30;1.27;;;;;;;15.21;59.65;101235.73;1683872;85;21061;-66
2022/10/10 08:24:38;;;;;;;1.72;1.25;;;;;;;15.28;59.72;101231.61;1670915;85;21537;-66
2022/10/10 08:27:09;;;;;;;2.80;1.00;;;;;;;15.34;58.49;101236.30;1674154;85;21079;-65
2022/10/10 08:29:47;;;;;;;7.85;1.30;;;;;;;15.33;57.66;101242.36;1659472;85;21178;-67
2022/10/10 08:32:18;;;;;;;3.83;1.50;;;;;;;15.26;57.75;101238.72;1663415;85;21032;-65
2022/10/10 08:34:47;;;;;;;2.60;0.90;;;;;;;15.17;57.80;101238.59;1659022;85;21087;-65
2022/10/10 08:37:16;;;;;;;2.95;1.10;;;;;;;15.05;57.04;101243.01;1656352;85;21051;-65
2022/10/10 08:39:45;;;;;;;7.55;1.15;;;;;;;14.95;57.63;101241.13;1667523;85;21538;-67
2022/10/10 08:42:19;;;;;;;5.40;1.07;;;;;;;14.88;57.83;101237.81;1657625;85;21063;-65
2022/10/10 08:44:52;;;;;;;6.60;1.27;;;;;;;14.78;57.89;101238.72;1678028;84;21469;-65
2022/10/10 08:47:26;;;;;;;3.30;1.00;;;;;;;14.69;58.04;101234.44;1683869;85;21110;-65
2022/10/10 08:50:23;;;;;;;3.70;1.02;;;;;;;14.57;57.67;101236.92;1683346;84;21065;-67
2022/10/10 08:53:02;;;;;;;9.58;1.07;;;;;;;14.43;57.83;101236.52;1665724;84;21067;-66
2022/10/10 08:55:37;;;;;;;3.08;1.17;;;;;;;14.32;57.91;101233.44;1646735;85;21007;-67
2022/10/10 08:58:32;;;;;;;2.60;1.00;;;;;;;14.23;57.91;101246.50;1678983;85;21041;-68
2022/10/10 09:01:22;;;;;;;2.40;0.85;;;;;;;14.15;57.84;101240.61;1656607;85;21051;-67
2022/10/10 09:03:56;;;;;;;4.03;1.30;;;;;;;14.03;57.59;101244.97;1667246;85;21131;-65
2022/10/10 09:06:53;;;;;;;3.17;0.80;;;;;;;13.91;57.38;101239.14;1656227;85;21072;-67
2022/10/10 09:09:43;;;;;;;5.33;0.90;;;;;;;13.84;56.17;101248.41;1680857;84;21120;-66
2022/10/10 09:12:29;;;;;;;2.90;0.85;;;;;;;13.72;56.54;101230.19;1674623;83;21549;-69
2022/10/10 09:15:14;;;;;;;;;;;;;;;13.67;57.20;101235.96;1666331;85;21066;-66
2022/10/10 09:18:17;;;;;;;3.52;0.90;;;;;;;13.60;57.11;101235.34;1674589;85;20217;-67
2022/10/10 09:21:16;;;;;;;4.67;0.90;;;;;;;13.57;57.18;101239.02;1678833;85;21126;-66
2022/10/10 09:23:57;;;;;;;2.77;0.90;;;;;;;13.53;57.17;101230.30;1646950;85;21067;-67
2022/10/10 09:26:30;;;;;;;2.17;0.65;;;;;;;13.51;57.07;101238.42;1677498;85;21057;-68
2022/10/10 09:29:26;;;;;;;3.42;1.02;;;;;;;13.48;57.05;101235.54;1604248;87;21153;-64
2022/10/10 09:32:12;;;;;;;3.62;0.82;;;;;;;13.47;57.49;101249.50;1535443;87;21160;-64
2022/10/10 09:34:53;;;;;;;2.47;0.90;;;;;;;13.46;55.93;101240.39;1673392;84;21066;-66
2022/10/10 09:37:40;;;;;;;3.50;0.70;;;;;;;13.44;55.82;101242.48;1673203;84;21008;-65
2022/10/10 09:40:35;;;;;;;2.60;0.85;;;;;;;13.42;55.52;101247.34;1692031;84;21066;-65
2022/10/10 09:43:14;;;;;;;3.27;0.90;;;;;;;13.41;55.50;101240.65;1682907;84;21073;-64
2022/10/10 09:45:54;;;;;;;7.72;0.80;;;;;;;13.38;55.35;101239.14;1673653;84;21146;-65
2022/10/10 09:48:38;;;;;;;1.98;0.60;;;;;;;13.38;54.89;101236.39;1672623;84;21055;-65
2022/10/10 09:51:15;;;;;;;2.15;0.50;;;;;;;13.37;54.03;101233.31;1693638;84;21068;-65
2022/10/10 09:53:48;;;;;;;4.62;1.00;;;;;;;13.35;54.03;101229.90;1689286;83;21045;-65
2022/10/10 09:56:21;;;;;;;3.35;0.70;;;;;;;13.33;54.21;101232.84;1623922;87;21089;-66
2022/10/10 09:58:52;;;;;;;5.10;0.80;;;;;;;13.34;54.29;101225.44;1672267;84;21082;-66
2022/10/10 10:01:27;;;;;;;2.35;0.62;;;;;;;13.32;53.99;101230.29;1661434;85;21094;-67
2022/10/10 10:04:18;;;;;;;5.40;0.80;;;;;;;13.30;53.67;101221.38;1667838;85;21039;-64
2022/10/10 10:06:51;;;;;;;3.10;0.65;;;;;;;13.29;53.80;101218.30;1658673;85;21056;-69
2022/10/10 10:09:22;;;;;;;3.33;0.57;;;;;;;13.30;53.50;101217.25;1666938;85;21497;-67
2022/10/10 10:11:54;;;;;;;1.52;0.55;;;;;;;13.30;53.66;101216.72;1655723;86;21107;-67
2022/10/10 10:14:29;;;;;;;2.52;0.82;;;;;;;13.30;52.56;101209.84;1649620;85;21083;-66
2022/10/10 10:17:14;;;;;;;2.22;0.78;;;;;;;13.33;53.30;101220.46;1670074;85;21071;-66
2022/10/10 10:19:45;;;;;;;2.17;0.62;;;;;;;13.38;53.03;101206.63;1669755;85;21035;-66
2022/10/10 10:22:34;;;;;;;1.95;0.70;;;;;;;13.40;53.34;101212.27;1672268;85;21053;-66
2022/10/10 10:25:31;;;;;;;3.72;0.82;;;;;;;13.42;52.58;101212.92;1661236;85;21015;-66
2022/10/10 10:28:17;;;;;;;5.00;0.80;;;;;;;13.43;52.47;101210.50;1655997;85;21051;-64
2022/10/10 10:30:46;;;;;;;3.22;0.70;;;;;;;13.44;52.27;101213.58;1676572;85;21106;-65
2022/10/10 10:33:39;;;;;;;3.45;0.72;;;;;;;13.45;51.76;101205.65;1676213;85;21482;-66
2022/10/10 10:36:38;;;;;;;1.62;0.60;;;;;;;13.46;51.48;101206.50;1661987;85;21035;-66
2022/10/10 10:40:01;;;;;;;1.75;0.60;;;;;;;13.47;50.97;101213.19;1661098;85;21078;-66
2022/10/10 10:43:09;;;;;;;3.20;0.65;;;;;;;13.48;50.55;101212.66;1655383;85;21083;-66
2022/10/10 10:45:59;;;;;;;2.27;0.73;;;;;;;13.48;50.77;101205.78;1655762;86;21135;-66
2022/10/10 10:48:49;;;;;;;1.27;0.60;;;;;;;13.48;50.41;101206.63;1645056;85;21007;-67
2022/10/10 10:51:39;;;;;;;1.65;0.53;;;;;;;13.51;51.04;101203.48;1647623;85;21139;-66
2022/10/10 10:54:38;;;;;;;1.77;0.60;;;;;;;13.53;51.09;101201.38;1655806;85;21098;-66
2022/10/10 10:57:21;;;;;;;2.45;0.68;;;;;;;13.55;52.02;101202.03;1672769;85;21045;-65
2022/10/10 11:00:14;;;;;;;0.80;0.50;;;;;;;13.58;52.63;101220.06;1660336;85;21513;-65
2022/10/10 11:03:08;;;;;;;2.35;0.72;;;;;;;13.59;52.60;101212.98;1553271;91;21114;-65
2022/10/10 11:06:00;;;;;;;1.90;0.90;;;;;;;13.60;53.13;101211.94;1601011;88;21073;-67
2022/10/10 11:09:07;;;;;;;1.70;0.60;;;;;;;13.62;53.57;101210.36;1578021;90;21103;-64
2022/10/10 11:11:50;;;;;;;1.85;0.60;;;;;;;13.62;53.13;101217.24;1640136;86;21044;-66
2022/10/10 11:14:54;;;;;;;0.62;0.60;;;;;;;13.57;52.82;101213.70;1658854;86;21093;-65
2022/10/10 11:22:09;;;;;;;4.85;0.90;;;;;;;13.49;52.68;101211.09;1644323;86;21074;-67
2022/10/10 11:24:53;;;;;;;5.08;0.55;;;;;;;13.47;51.82;101209.58;1657052;85;21095;-64
2022/10/10 11:27:43;;;;;;;1.90;0.70;;;;;;;13.45;51.60;101212.53;1659567;85;21045;-67
2022/10/10 11:30:23;;;;;;;1.60;0.70;;;;;;;13.45;51.61;101212.53;1634730;87;21130;-66
2022/10/10 11:33:13;;;;;;;1.77;0.60;;;;;;;13.44;51.01;101205.32;1652943;86;21025;-67
2022/10/10 11:36:04;;;;;;;2.42;0.60;;;;;;;13.43;50.75;101206.37;1657111;85;21063;-66
2022/10/10 11:38:52;;;;;;;1.92;0.90;;;;;;;13.44;50.95;101208.60;1656273;86;21051;-64
2022/10/10 11:41:39;;;;;;;1.62;0.80;;;;;;;13.46;51.48;101223.87;1659590;86;21545;-68
2022/10/10 11:44:40;;;;;;;5.08;0.60;;;;;;;13.48;51.69;101214.89;1639190;87;21087;-68
2022/10/10 11:47:34;;;;;;;3.33;0.85;;;;;;;13.51;51.59;101210.37;1656459;86;21123;-67
2022/10/10 11:50:30;;;;;;;1.87;0.70;;;;;;;13.51;50.41;101202.63;1659130;85;21064;-70
2022/10/10 11:53:23;;;;;;;2.15;0.90;;;;;;;13.52;49.47;101209.84;1657965;85;21530;-67
2022/10/10 11:56:25;;;;;;;3.55;0.60;;;;;;;13.49;48.87;101208.33;1660946;85;21114;-66
2022/10/10 11:59:10;;;;;;;2.10;0.70;;;;;;;13.49;49.17;101212.98;1658092;85;21034;-68
2022/10/10 12:01:49;;;;;;;2.25;1.22;;;;;;;13.48;49.73;101219.02;1658278;86;21066;-68
2022/10/10 12:04:21;;;;;;;2.22;0.70;;;;;;;13.49;50.34;101221.25;1663269;85;21119;-68
2022/10/10 12:07:00;;;;;;;3.67;0.88;;;;;;;13.50;50.44;101223.80;1665780;84;21457;-68
2022/10/10 12:09:35;;;;;;;2.25;0.70;;;;;;;13.52;50.43;101216.20;1654419;85;21070;-66
2022/10/10 12:12:21;;;;;;;1.50;0.62;;;;;;;13.51;49.76;101212.27;1673387;85;21055;-65
2022/10/10 12:14:55;;;;;;;2.60;0.80;;;;;;;13.50;48.73;101208.66;1643923;85;21439;-65
2022/10/10 12:17:30;;;;;;;1.30;0.82;;;;;;;13.50;48.54;101218.30;1664374;85;21067;-66